Time;durP1;ratioP1;P1;durP2;ratioP2;P2;SDS_P1;SDS_P2;PMS_P1;PMS_P2;Temp;Humidity;BMP_temperature;BMP_pressure;BME280_temperature;BME280_humidity;BME280_pressure;Samples;Min_cycle;Max_cycle;Signal;HPM_P1;HPM_P2
2023/11/04 00:02:17;;;;;;;;;;;;;;;27.11;20.66;95999.09;5047814;28;19921;-92
2023/11/04 00:04:44;;;;;;;;;;;;;;;26.04;22.02;96003.63;5060653;28;19927;-93
2023/11/04 00:07:10;;;;;;;;;;;;;;;26.59;21.18;96008.97;5058178;28;19920;-93
2023/11/04 00:09:36;;;;;;;;;;;;;;;26.58;21.32;96011.00;5048732;28;19976;-93
2023/11/04 00:12:02;;;;;;;;;;;;;;;26.22;21.93;96019.41;5059488;28;19931;-92
2023/11/04 00:14:28;;;;;;;;;;;;;;;26.28;21.45;96018.19;5058557;28;19925;-92
2023/11/04 00:16:54;;;;;;;;;;;;;;;26.17;21.53;96025.75;5056153;28;19927;-93
2023/11/04 00:19:20;;;;;;;;;;;;;;;25.59;22.54;96030.50;5057167;28;20377;-92
2023/11/04 00:21:46;;;;;;;;;;;;;;;26.55;21.62;96026.09;5054143;28;19922;-93
2023/11/04 00:24:12;;;;;;;;;;;;;;;27.01;20.97;96022.31;5052742;28;19950;-92
2023/11/04 00:26:38;;;;;;;;;;;;;;;26.78;21.14;96010.16;5058427;28;19995;-93
2023/11/04 00:29:07;;;;;;;;;;;;;;;26.86;20.88;96010.47;5054376;28;19921;-93
2023/11/04 00:31:36;;;;;;;;;;;;;;;26.42;21.59;96025.72;5055906;28;19917;-93
2023/11/04 00:34:02;;;;;;;;;;;;;;;26.56;21.48;96021.22;5051198;28;19917;-92
2023/11/04 00:36:29;;;;;;;;;;;;;;;26.77;21.13;96025.50;5045513;28;19923;-93
2023/11/04 00:38:55;;;;;;;;;;;;;;;27.03;20.86;96019.78;5048511;28;19921;-92
2023/11/04 00:41:21;;;;;;;;;;;;;;;27.19;20.79;96021.94;5051068;28;19931;-92
2023/11/04 00:43:47;;;;;;;;;;;;;;;27.24;20.96;96018.34;5052580;28;19943;-92
2023/11/04 00:46:13;;;;;;;;;;;;;;;26.82;21.22;96029.63;5055067;28;19925;-92
2023/11/04 00:48:39;;;;;;;;;;;;;;;26.94;21.04;96017.94;5057733;28;19943;-92
2023/11/04 00:51:06;;;;;;;;;;;;;;;27.13;20.68;96023.94;5058724;28;19917;-92
2023/11/04 00:53:32;;;;;;;;;;;;;;;27.12;20.85;96031.59;5055206;28;19928;-92
2023/11/04 00:55:58;;;;;;;;;;;;;;;27.15;20.89;96024.19;5058392;28;20384;-92
2023/11/04 00:58:24;;;;;;;;;;;;;;;27.35;20.40;96026.88;5056122;28;19917;-93
2023/11/04 01:00:50;;;;;;;;;;;;;;;27.57;20.33;96041.09;5055900;28;19939;-93
2023/11/04 01:03:18;;;;;;;;;;;;;;;27.35;20.36;96043.78;5057527;28;19920;-93
2023/11/04 01:05:44;;;;;;;;;;;;;;;27.09;20.86;96051.56;5058762;28;19932;-92
2023/11/04 01:08:10;;;;;;;;;;;;;;;26.93;20.96;96052.25;5044702;28;19924;-92
2023/11/04 01:10:37;;;;;;;;;;;;;;;26.99;20.70;96058.69;5052855;28;19924;-93
2023/11/04 01:13:04;;;;;;;;;;;;;;;27.25;20.66;96051.69;5052869;28;19924;-92
2023/11/04 01:15:30;;;;;;;;;;;;;;;26.90;20.57;96058.88;5052638;28;19925;-92
2023/11/04 01:17:56;;;;;;;;;;;;;;;26.79;20.55;96061.63;5055061;28;19920;-92
2023/11/04 01:20:22;;;;;;;;;;;;;;;26.99;20.49;96072.75;5052154;28;19955;-92
2023/11/04 01:22:48;;;;;;;;;;;;;;;26.99;20.70;96069.94;5045339;28;19925;-92
2023/11/04 01:25:15;;;;;;;;;;;;;;;26.85;20.97;96071.66;5057028;28;20019;-92
2023/11/04 01:27:41;;;;;;;;;;;;;;;26.67;20.89;96078.41;5058332;28;19920;-92
2023/11/04 01:30:07;;;;;;;;;;;;;;;26.43;21.01;96077.94;5053938;28;19966;-92
2023/11/04 01:32:33;;;;;;;;;;;;;;;26.51;21.31;96079.00;5056537;28;19964;-92
2023/11/04 01:34:59;;;;;;;;;;;;;;;26.31;21.35;96081.91;5056226;28;19947;-93
2023/11/04 01:37:25;;;;;;;;;;;;;;;26.37;21.13;96085.53;5054502;28;19928;-93
2023/11/04 01:39:52;;;;;;;;;;;;;;;26.51;21.10;96078.25;5056621;28;19924;-92
2023/11/04 01:42:18;;;;;;;;;;;;;;;26.34;21.75;96074.50;5057139;28;20296;-93
2023/11/04 01:44:44;;;;;;;;;;;;;;;26.51;20.80;96081.06;5055605;28;20027;-93
2023/11/04 01:47:12;;;;;;;;;;;;;;;26.57;21.04;96084.69;5056912;28;19968;-92
2023/11/04 01:49:38;;;;;;;;;;;;;;;26.07;21.61;96082.16;5055368;28;20353;-94
2023/11/04 01:52:05;;;;;;;;;;;;;;;25.99;21.78;96083.88;5058830;28;19960;-93
2023/11/04 01:54:33;;;;;;;;;;;;;;;26.17;21.75;96088.41;5056478;28;19964;-93
2023/11/04 01:56:59;;;;;;;;;;;;;;;26.36;21.09;96088.84;5052234;28;20386;-93
2023/11/04 01:59:26;;;;;;;;;;;;;;;26.50;21.09;96083.13;5055663;28;19921;-93
2023/11/04 02:01:52;;;;;;;;;;;;;;;26.54;20.87;96080.06;5047713;28;19921;-94
2023/11/04 02:04:18;;;;;;;;;;;;;;;26.37;21.05;96077.09;5057034;28;19971;-93
2023/11/04 02:06:44;;;;;;;;;;;;;;;25.97;21.55;96066.72;5060507;28;19916;-93
2023/11/04 02:09:11;;;;;;;;;;;;;;;25.68;22.05;96069.69;5059154;28;20183;-94
2023/11/04 02:11:37;;;;;;;;;;;;;;;25.64;22.06;96068.38;5062435;28;19925;-93
2023/11/04 02:14:04;;;;;;;;;;;;;;;26.18;21.53;96075.91;5057993;28;20007;-93
2023/11/04 02:16:30;;;;;;;;;;;;;;;26.71;20.75;96083.78;5060959;28;19959;-92
2023/11/04 02:18:56;;;;;;;;;;;;;;;27.09;20.36;96096.66;5055560;28;19921;-93
2023/11/04 02:21:22;;;;;;;;;;;;;;;27.20;20.10;96105.16;5052626;28;20507;-93
2023/11/04 02:23:48;;;;;;;;;;;;;;;27.12;20.34;96106.94;5042165;28;19923;-93
2023/11/04 02:26:14;;;;;;;;;;;;;;;27.07;20.10;96116.09;5053081;28;19921;-93
2023/11/04 02:28:40;;;;;;;;;;;;;;;27.05;20.19;96127.09;5044059;28;19920;-93
2023/11/04 02:31:06;;;;;;;;;;;;;;;26.45;20.71;96128.84;5064605;28;19927;-92
2023/11/04 02:33:32;;;;;;;;;;;;;;;26.09;20.60;96135.09;5066151;28;19920;-92
2023/11/04 02:35:58;;;;;;;;;;;;;;;25.97;20.85;96130.63;5064938;28;19963;-92
2023/11/04 02:38:24;;;;;;;;;;;;;;;25.53;21.82;96133.66;5058914;28;19951;-94
2023/11/04 02:40:50;;;;;;;;;;;;;;;25.23;22.17;96134.94;5054728;28;19924;-94
2023/11/04 02:43:16;;;;;;;;;;;;;;;25.29;22.11;96125.38;5055401;28;19928;-94
2023/11/04 02:45:42;;;;;;;;;;;;;;;25.51;21.71;96133.34;5054943;28;19917;-93
2023/11/04 02:48:09;;;;;;;;;;;;;;;25.69;21.77;96129.50;5053719;28;19921;-94
2023/11/04 02:50:35;;;;;;;;;;;;;;;26.12;21.32;96130.53;5055044;28;19967;-93
2023/11/04 02:53:01;;;;;;;;;;;;;;;26.26;20.92;96129.66;5056398;28;19917;-93
2023/11/04 02:55:27;;;;;;;;;;;;;;;26.26;20.65;96138.09;5057461;28;19928;-93
2023/11/04 02:57:53;;;;;;;;;;;;;;;26.29;20.83;96135.09;5055825;28;19917;-94
2023/11/04 03:00:19;;;;;;;;;;;;;;;26.43;20.28;96153.91;5057177;28;20385;-94
2023/11/04 03:02:45;;;;;;;;;;;;;;;26.33;19.97;96158.16;5049873;28;19925;-93
2023/11/04 03:05:11;;;;;;;;;;;;;;;25.73;20.77;96163.78;5042632;28;19921;-93
2023/11/04 03:07:37;;;;;;;;;;;;;;;25.73;20.77;96160.97;5040772;28;19921;-94
2023/11/04 03:10:04;;;;;;;;;;;;;;;25.78;20.92;96161.06;5039914;28;19917;-93
2023/11/04 03:12:33;;;;;;;;;;;;;;;25.51;21.45;96164.25;5055952;28;20305;-93
2023/11/04 03:14:59;;;;;;;;;;;;;;;24.93;21.76;96167.94;5059692;28;19917;-93
2023/11/04 03:17:25;;;;;;;;;;;;;;;24.99;22.34;96177.25;5055766;28;19989;-93
2023/11/04 03:19:51;;;;;;;;;;;;;;;24.85;22.01;96191.28;5050859;28;19921;-94
2023/11/04 03:22:18;;;;;;;;;;;;;;;25.20;21.67;96192.13;5055314;28;19947;-94
2023/11/04 03:24:45;;;;;;;;;;;;;;;25.67;21.18;96196.69;5055425;28;19935;-94
2023/11/04 03:27:12;;;;;;;;;;;;;;;25.54;21.58;96205.44;5053779;28;19924;-94
2023/11/04 03:29:39;;;;;;;;;;;;;;;25.39;21.20;96207.50;5050128;28;20392;-94
2023/11/04 03:32:05;;;;;;;;;;;;;;;25.42;21.42;96204.47;5045965;28;19955;-93
2023/11/04 03:34:31;;;;;;;;;;;;;;;25.85;20.96;96213.28;5050690;28;20021;-94
2023/11/04 03:36:58;;;;;;;;;;;;;;;26.10;20.70;96209.78;5052564;28;19921;-94
2023/11/04 03:39:24;;;;;;;;;;;;;;;26.08;20.75;96209.50;5050589;28;19921;-94
2023/11/04 03:41:50;;;;;;;;;;;;;;;26.00;20.65;96202.72;5050801;28;19991;-94
2023/11/04 03:44:16;;;;;;;;;;;;;;;25.96;21.15;96204.97;5055780;28;19920;-94
2023/11/04 03:46:42;;;;;;;;;;;;;;;26.07;20.86;96216.38;5055847;28;19923;-94
2023/11/04 03:49:08;;;;;;;;;;;;;;;26.15;20.61;96223.16;5048985;28;20353;-94
2023/11/04 03:51:35;;;;;;;;;;;;;;;26.26;20.54;96209.22;5035885;28;19971;-94
2023/11/04 03:54:01;;;;;;;;;;;;;;;26.39;20.30;96215.28;5039570;28;19917;-94
2023/11/04 03:56:27;;;;;;;;;;;;;;;26.52;20.20;96218.47;5049525;28;19927;-93
2023/11/04 03:58:53;;;;;;;;;;;;;;;26.57;20.03;96217.78;5058191;28;20413;-93
2023/11/04 04:01:19;;;;;;;;;;;;;;;25.99;20.15;96220.88;5043342;28;19957;-93
2023/11/04 04:03:45;;;;;;;;;;;;;;;25.79;20.34;96224.44;5054430;28;19920;-93
2023/11/04 04:06:11;;;;;;;;;;;;;;;25.39;20.98;96230.72;5053212;28;19918;-94
2023/11/04 04:08:37;;;;;;;;;;;;;;;25.34;20.96;96222.22;5055713;28;19921;-93
2023/11/04 04:11:03;;;;;;;;;;;;;;;25.37;21.14;96233.25;5049018;28;19932;-93
2023/11/04 04:13:29;;;;;;;;;;;;;;;25.32;21.32;96233.19;5054140;28;20496;-93
2023/11/04 04:15:55;;;;;;;;;;;;;;;25.45;21.08;96232.88;5039028;28;19917;-93
2023/11/04 04:18:21;;;;;;;;;;;;;;;25.67;20.97;96233.22;5055986;28;20289;-94
2023/11/04 04:20:47;;;;;;;;;;;;;;;25.82;20.79;96236.75;5055986;28;19967;-93
2023/11/04 04:23:13;;;;;;;;;;;;;;;25.67;20.86;96238.84;5042148;28;20011;-94
2023/11/04 04:25:40;;;;;;;;;;;;;;;25.76;20.58;96238.72;5056376;28;20007;-94
2023/11/04 04:28:06;;;;;;;;;;;;;;;25.65;20.60;96241.38;5052351;28;19975;-95
2023/11/04 04:30:32;;;;;;;;;;;;;;;25.74;20.98;96244.06;5052138;28;19921;-93
2023/11/04 04:32:58;;;;;;;;;;;;;;;25.21;21.37;96249.81;5056455;28;19921;-94
2023/11/04 04:35:24;;;;;;;;;;;;;;;25.17;21.97;96263.31;5053312;28;20409;-94
2023/11/04 04:37:50;;;;;;;;;;;;;;;25.14;21.74;96262.22;5058200;28;20005;-94
2023/11/04 04:40:16;;;;;;;;;;;;;;;25.29;21.01;96262.22;5052695;28;19925;-94
2023/11/04 04:42:42;;;;;;;;;;;;;;;25.50;21.21;96272.31;5058754;28;19928;-94
2023/11/04 04:45:09;;;;;;;;;;;;;;;25.61;20.95;96257.66;5056569;28;19921;-93
2023/11/04 04:47:38;;;;;;;;;;;;;;;25.42;21.15;96269.09;5058060;28;19971;-93
2023/11/04 04:50:07;;;;;;;;;;;;;;;25.63;21.10;96280.41;5052907;28;19928;-93
2023/11/04 04:52:33;;;;;;;;;;;;;;;25.34;21.36;96273.53;5044402;28;19967;-93
2023/11/04 04:54:59;;;;;;;;;;;;;;;25.33;20.97;96283.25;5041378;28;20286;-94
2023/11/04 04:57:25;;;;;;;;;;;;;;;24.99;21.40;96278.31;5045628;28;19924;-94
2023/11/04 04:59:51;;;;;;;;;;;;;;;25.15;21.77;96294.69;5046403;28;19921;-93
2023/11/04 05:02:18;;;;;;;;;;;;;;;25.26;21.32;96289.25;5050931;28;19928;-94
2023/11/04 05:04:45;;;;;;;;;;;;;;;25.16;21.64;96293.41;5044367;28;20010;-94
2023/11/04 05:07:11;;;;;;;;;;;;;;;25.52;21.48;96292.25;5057800;28;19916;-94
2023/11/04 05:09:37;;;;;;;;;;;;;;;25.88;21.05;96291.78;5043386;28;19916;-94
2023/11/04 05:12:03;;;;;;;;;;;;;;;26.20;20.43;96287.16;5057792;28;19925;-93
2023/11/04 05:14:29;;;;;;;;;;;;;;;26.42;20.37;96293.06;5056894;28;20415;-93
2023/11/04 05:16:55;;;;;;;;;;;;;;;26.33;20.11;96296.03;5058734;28;19952;-94
2023/11/04 05:19:21;;;;;;;;;;;;;;;26.04;20.60;96294.06;5051528;28;19964;-93
2023/11/04 05:21:47;;;;;;;;;;;;;;;25.90;21.01;96300.53;5055029;28;19970;-94
2023/11/04 05:24:13;;;;;;;;;;;;;;;25.83;20.75;96302.97;5058566;28;20049;-93
2023/11/04 05:26:43;;;;;;;;;;;;;;;26.12;20.74;96308.53;5057645;28;19921;-94
2023/11/04 05:29:09;;;;;;;;;;;;;;;26.30;20.03;96310.31;5057846;28;19916;-94
2023/11/04 05:31:35;;;;;;;;;;;;;;;26.44;19.95;96312.28;5040740;28;19924;-94
2023/11/04 05:34:01;;;;;;;;;;;;;;;26.34;20.42;96308.06;5061977;28;19935;-94
2023/11/04 05:36:27;;;;;;;;;;;;;;;26.29;20.69;96311.56;5055959;28;19921;-93
2023/11/04 05:38:53;;;;;;;;;;;;;;;26.04;20.86;96302.50;5061027;28;19921;-94
2023/11/04 05:41:19;;;;;;;;;;;;;;;26.09;20.76;96301.81;5058595;28;19932;-93
2023/11/04 05:43:45;;;;;;;;;;;;;;;26.42;20.60;96304.31;5058457;28;19921;-93
2023/11/04 05:46:11;;;;;;;;;;;;;;;26.38;20.62;96305.81;5057397;28;19925;-93
2023/11/04 05:48:38;;;;;;;;;;;;;;;25.99;20.70;96308.84;5053336;28;19921;-94
2023/11/04 05:51:05;;;;;;;;;;;;;;;25.84;21.18;96313.72;5056918;28;19923;-94
2023/11/04 05:53:31;;;;;;;;;;;;;;;25.82;21.23;96318.28;5053036;28;19928;-94
2023/11/04 05:55:57;;;;;;;;;;;;;;;25.43;21.75;96320.44;5054693;28;20027;-94
2023/11/04 05:58:23;;;;;;;;;;;;;;;25.57;21.63;96322.50;5056807;28;19940;-93
2023/11/04 06:00:49;;;;;;;;;;;;;;;26.11;21.34;96318.25;5047046;28;19935;-94
2023/11/04 06:03:15;;;;;;;;;;;;;;;26.37;21.37;96324.72;5058746;28;19938;-92
2023/11/04 06:05:41;;;;;;;;;;;;;;;26.36;21.09;96317.56;5061469;28;19992;-93
2023/11/04 06:08:07;;;;;;;;;;;;;;;26.51;21.35;96323.13;5061034;28;19946;-92
2023/11/04 06:10:33;;;;;;;;;;;;;;;26.72;21.16;96319.03;5040259;28;19936;-94
2023/11/04 06:12:59;;;;;;;;;;;;;;;27.02;21.15;96328.09;5042728;28;19921;-94
2023/11/04 06:15:25;;;;;;;;;;;;;;;27.49;20.53;96327.59;5043157;28;19965;-94
2023/11/04 06:17:51;;;;;;;;;;;;;;;27.68;20.99;96328.75;5052491;28;19966;-94
2023/11/04 06:20:18;;;;;;;;;;;;;;;27.99;20.39;96330.81;5051102;28;20012;-94
2023/11/04 06:22:44;;;;;;;;;;;;;;;28.12;20.84;96325.53;5041769;28;20440;-93
2023/11/04 06:25:10;;;;;;;;;;;;;;;28.22;20.57;96326.84;5044134;28;19932;-94
2023/11/04 06:27:36;;;;;;;;;;;;;;;28.18;21.15;96331.19;5046782;28;20321;-93
2023/11/04 06:30:02;;;;;;;;;;;;;;;27.98;21.19;96335.63;5041425;28;20398;-94
2023/11/04 06:32:28;;;;;;;;;;;;;;;28.03;20.96;96334.16;5044152;28;20341;-93
2023/11/04 06:34:54;;;;;;;;;;;;;;;28.16;20.74;96337.34;5047216;28;20401;-93
2023/11/04 06:37:20;;;;;;;;;;;;;;;28.30;20.52;96336.41;5043612;28;19925;-94
2023/11/04 06:39:46;;;;;;;;;;;;;;;28.38;20.45;96334.63;5037091;28;19975;-94
2023/11/04 06:42:18;;;;;;;;;;;;;;;28.36;20.66;96342.06;5035774;28;19925;-94
2023/11/04 06:44:45;;;;;;;;;;;;;;;28.39;20.74;96329.75;5047969;28;19920;-94
2023/11/04 06:47:11;;;;;;;;;;;;;;;27.94;20.94;96337.16;5055764;28;19991;-94
2023/11/04 06:49:38;;;;;;;;;;;;;;;27.65;21.37;96335.41;5049975;28;19928;-94
2023/11/04 06:52:04;;;;;;;;;;;;;;;27.93;20.82;96335.63;5053213;28;19974;-93
2023/11/04 06:54:30;;;;;;;;;;;;;;;28.14;20.40;96331.44;5053102;28;19924;-94
2023/11/04 06:56:56;;;;;;;;;;;;;;;28.23;20.45;96336.88;5037788;28;19921;-94
2023/11/04 06:59:22;;;;;;;;;;;;;;;28.06;20.84;96331.13;5041215;28;19917;-94
2023/11/04 07:01:49;;;;;;;;;;;;;;;28.12;20.61;96325.53;5055890;28;19924;-94
2023/11/04 07:04:15;;;;;;;;;;;;;;;28.29;20.45;96326.38;5050756;28;19924;-94
2023/11/04 07:06:42;;;;;;;;;;;;;;;28.43;20.42;96324.66;5042714;28;19925;-94
2023/11/04 07:09:08;;;;;;;;;;;;;;;28.27;20.39;96317.63;5034854;28;19917;-94
2023/11/04 07:11:34;;;;;;;;;;;;;;;28.00;20.72;96315.44;5049187;28;19925;-93
2023/11/04 07:14:01;;;;;;;;;;;;;;;27.79;20.75;96317.56;5040636;28;19932;-93
2023/11/04 07:16:27;;;;;;;;;;;;;;;27.53;21.25;96321.69;5051581;28;20365;-93
2023/11/04 07:18:53;;;;;;;;;;;;;;;27.46;21.59;96322.94;5051931;28;19928;-93
2023/11/04 07:21:19;;;;;;;;;;;;;;;27.74;21.50;96323.94;5052217;28;19966;-93
2023/11/04 07:23:45;;;;;;;;;;;;;;;27.77;21.54;96317.28;5050740;28;20389;-93
2023/11/04 07:26:11;;;;;;;;;;;;;;;27.84;21.37;96318.88;5043138;28;20031;-94
2023/11/04 07:28:37;;;;;;;;;;;;;;;27.68;22.00;96320.28;5047023;28;20271;-89
2023/11/04 07:31:04;;;;;;;;;;;;;;;27.63;22.08;96314.63;5048329;28;20023;-94
2023/11/04 07:33:31;;;;;;;;;;;;;;;27.65;21.94;96321.31;5033436;28;20385;-92
2023/11/04 07:35:57;;;;;;;;;;;;;;;27.70;22.12;96317.72;5035624;28;19924;-93
2023/11/04 07:38:23;;;;;;;;;;;;;;;27.86;22.15;96322.75;5049545;28;19928;-93
2023/11/04 07:40:49;;;;;;;;;;;;;;;27.41;22.54;96320.84;5044952;28;19925;-93
2023/11/04 07:43:16;;;;;;;;;;;;;;;27.25;22.09;96324.25;5045936;28;19928;-92
2023/11/04 07:45:46;;;;;;;;;;;;;;;26.86;22.58;96326.66;5049725;28;19921;-92
2023/11/04 07:48:13;;;;;;;;;;;;;;;27.59;21.45;96334.56;5050205;28;20401;-93
2023/11/04 07:50:39;;;;;;;;;;;;;;;28.02;21.61;96330.59;5048980;28;19917;-92
2023/11/04 07:53:06;;;;;;;;;;;;;;;28.29;20.49;96331.25;5051364;28;19923;-92
2023/11/04 07:55:32;;;;;;;;;;;;;;;28.44;20.50;96331.84;5051869;28;19925;-93
2023/11/04 07:57:58;;;;;;;;;;;;;;;28.65;20.83;96330.44;5051001;28;20381;-93
2023/11/04 08:00:24;;;;;;;;;;;;;;;28.70;21.09;96332.53;5051541;28;19925;-92
2023/11/04 08:02:50;;;;;;;;;;;;;;;28.91;20.89;96324.63;5035532;28;19925;-93
2023/11/04 08:05:16;;;;;;;;;;;;;;;28.82;21.07;96324.88;5052625;28;19931;-92
2023/11/04 08:07:42;;;;;;;;;;;;;;;29.03;20.91;96327.00;5051512;28;19927;-94
2023/11/04 08:10:08;;;;;;;;;;;;;;;29.31;20.37;96325.00;5051568;28;20031;-94
2023/11/04 08:12:35;;;;;;;;;;;;;;;29.59;19.80;96325.06;5049099;28;20271;-93
2023/11/04 08:15:01;;;;;;;;;;;;;;;29.52;20.53;96321.97;5051645;28;19932;-94
2023/11/04 08:17:27;;;;;;;;;;;;;;;29.42;20.13;96325.03;5050480;28;19925;-93
2023/11/04 08:19:53;;;;;;;;;;;;;;;29.50;20.16;96321.69;5047948;28;19929;-93
2023/11/04 08:22:19;;;;;;;;;;;;;;;29.02;20.58;96325.44;5046774;28;19971;-93
2023/11/04 08:24:45;;;;;;;;;;;;;;;28.94;20.58;96332.09;5051001;28;19944;-93
2023/11/04 08:27:11;;;;;;;;;;;;;;;29.27;20.69;96337.84;5044820;28;19925;-93
2023/11/04 08:29:39;;;;;;;;;;;;;;;29.58;20.92;96331.97;5042048;28;20385;-93
2023/11/04 08:32:06;;;;;;;;;;;;;;;29.84;19.80;96340.25;5040775;28;19924;-94
2023/11/04 08:34:35;;;;;;;;;;;;;;;30.03;19.70;96329.94;5051581;28;19943;-94
2023/11/04 08:37:01;;;;;;;;;;;;;;;30.18;19.44;96330.44;5050943;28;19928;-93
2023/11/04 08:39:27;;;;;;;;;;;;;;;30.17;20.09;96328.91;5044318;28;19967;-94
2023/11/04 08:41:54;;;;;;;;;;;;;;;30.41;19.45;96326.28;5053284;28;20382;-94
2023/11/04 08:44:22;;;;;;;;;;;;;;;30.51;19.41;96321.88;5053380;28;19944;-93
2023/11/04 08:46:48;;;;;;;;;;;;;;;30.46;18.54;96316.22;5052465;28;19991;-92
2023/11/04 08:49:14;;;;;;;;;;;;;;;30.69;18.26;96312.03;5044315;28;19921;-92
2023/11/04 08:51:40;;;;;;;;;;;;;;;30.89;19.20;96305.28;5049619;28;19920;-92
2023/11/04 08:54:09;;;;;;;;;;;;;;;31.05;19.07;96310.84;5049427;28;19924;-93
2023/11/04 08:56:35;;;;;;;;;;;;;;;31.15;18.20;96305.66;5050048;28;19928;-93
2023/11/04 08:59:01;;;;;;;;;;;;;;;31.01;18.55;96307.53;5054513;28;19927;-94
2023/11/04 09:01:27;;;;;;;;;;;;;;;30.90;17.99;96312.50;5051507;28;19932;-95
2023/11/04 09:03:55;;;;;;;;;;;;;;;30.34;18.70;96311.91;5049972;28;20442;-94
2023/11/04 09:06:22;;;;;;;;;;;;;;;29.63;18.20;96307.81;5043996;28;19921;-95
2023/11/04 09:08:48;;;;;;;;;;;;;;;29.84;18.52;96303.47;5052203;28;19928;-92
2023/11/04 09:11:14;;;;;;;;;;;;;;;30.37;19.18;96303.13;5048371;28;19925;-92
2023/11/04 09:13:40;;;;;;;;;;;;;;;30.69;18.85;96309.97;5049305;28;20385;-92
2023/11/04 09:16:06;;;;;;;;;;;;;;;30.87;18.15;96311.44;5047365;28;19924;-93
2023/11/04 09:18:34;;;;;;;;;;;;;;;30.89;18.03;96305.28;5049814;28;19925;-94
2023/11/04 09:21:00;;;;;;;;;;;;;;;29.72;18.67;96304.72;5056831;28;20298;-94
2023/11/04 09:23:27;;;;;;;;;;;;;;;30.03;19.02;96308.09;5052023;28;20000;-93
2023/11/04 09:25:53;;;;;;;;;;;;;;;30.37;18.11;96308.03;5053140;28;20274;-93
2023/11/04 09:28:19;;;;;;;;;;;;;;;30.27;18.58;96303.91;5054595;28;19921;-93
2023/11/04 09:30:45;;;;;;;;;;;;;;;30.39;18.29;96308.25;5051124;28;19931;-93
2023/11/04 09:33:12;;;;;;;;;;;;;;;30.71;17.87;96312.28;5054976;28;19987;-94
2023/11/04 09:35:37;;;;;;;;;;;;;;;30.66;17.50;96311.03;5053704;28;19975;-94
2023/11/04 09:38:04;;;;;;;;;;;;;;;30.77;18.02;96307.38;5054098;28;20348;-94
2023/11/04 09:40:30;;;;;;;;;;;;;;;30.65;17.72;96303.03;5049963;28;19979;-93
2023/11/04 09:42:57;;;;;;;;;;;;;;;30.15;17.83;96293.91;5057066;28;20275;-93
2023/11/04 09:45:24;;;;;;;;;;;;;;;29.88;18.04;96284.94;5055280;28;19921;-92
2023/11/04 09:47:50;;;;;;;;;;;;;;;29.76;17.98;96277.75;5052456;28;19964;-94
2023/11/04 09:50:17;;;;;;;;;;;;;;;29.41;18.61;96280.28;5053343;28;19920;-95
2023/11/04 09:52:46;;;;;;;;;;;;;;;29.36;18.78;96276.19;5053847;28;19921;-93
2023/11/04 09:55:14;;;;;;;;;;;;;;;29.71;19.16;96272.06;5053685;28;19940;-93
2023/11/04 09:57:41;;;;;;;;;;;;;;;29.59;18.27;96270.53;5053015;28;19924;-92
2023/11/04 10:00:08;;;;;;;;;;;;;;;29.28;18.59;96263.84;5054310;28;20223;-94
2023/11/04 10:02:35;;;;;;;;;;;;;;;28.89;19.17;96271.47;5052015;28;19932;-92
2023/11/04 10:05:01;;;;;;;;;;;;;;;29.52;19.08;96283.16;5051496;28;19933;-92
2023/11/04 10:07:27;;;;;;;;;;;;;;;29.74;18.86;96283.13;5049055;28;19917;-92
2023/11/04 10:09:54;;;;;;;;;;;;;;;29.98;18.20;96280.56;5053367;28;20015;-92
2023/11/04 10:12:21;;;;;;;;;;;;;;;30.40;17.89;96278.66;5053523;28;19931;-94
2023/11/04 10:14:47;;;;;;;;;;;;;;;30.66;18.00;96270.59;5054646;28;19975;-94
2023/11/04 10:17:13;;;;;;;;;;;;;;;30.66;17.91;96267.75;5054182;28;19916;-93
2023/11/04 10:19:39;;;;;;;;;;;;;;;30.90;17.72;96258.66;5054304;28;19920;-93
2023/11/04 10:22:05;;;;;;;;;;;;;;;31.11;17.76;96260.56;5053356;28;20484;-95
2023/11/04 10:24:31;;;;;;;;;;;;;;;31.29;16.89;96253.47;5052997;28;19931;-94
2023/11/04 10:26:57;;;;;;;;;;;;;;;31.43;16.68;96252.38;5053129;28;19960;-93
2023/11/04 10:29:23;;;;;;;;;;;;;;;31.35;16.43;96254.19;5047342;28;19921;-91
2023/11/04 10:31:52;;;;;;;;;;;;;;;31.31;16.62;96253.72;5052100;28;19921;-90
2023/11/04 10:34:23;;;;;;;;;;;;;;;31.36;17.15;96248.00;5053211;28;19972;-92
2023/11/04 10:36:51;;;;;;;;;;;;;;;31.45;16.81;96238.44;5051317;28;20015;-90
2023/11/04 10:39:20;;;;;;;;;;;;;;;31.52;17.13;96237.06;5042783;28;19921;-92
2023/11/04 10:41:52;;;;;;;;;;;;;;;31.63;16.33;96236.97;5052986;28;19931;-93
2023/11/04 10:44:25;;;;;;;;;;;;;;;31.66;16.41;96241.59;5052816;28;19920;-93
2023/11/04 10:47:10;;;;;;;;;;;;;;;31.69;16.94;96244.16;5048715;28;19958;-93
2023/11/04 10:49:45;;;;;;;;;;;;;;;31.96;17.01;96243.13;5045660;28;20723;-93
2023/11/04 10:52:13;;;;;;;;;;;;;;;31.99;17.01;96238.47;5048221;28;19962;-94
2023/11/04 10:54:43;;;;;;;;;;;;;;;31.63;16.95;96231.28;5054813;28;19959;-95
2023/11/04 10:57:16;;;;;;;;;;;;;;;31.32;17.00;96229.75;5055612;28;20377;-94
2023/11/04 10:59:51;;;;;;;;;;;;;;;31.50;16.30;96228.31;5052755;28;20062;-94
2023/11/04 11:02:18;;;;;;;;;;;;;;;31.42;17.42;96233.78;5051170;28;20011;-94
2023/11/04 11:04:45;;;;;;;;;;;;;;;31.78;16.69;96238.13;5054833;28;20035;-94
2023/11/04 11:07:15;;;;;;;;;;;;;;;31.27;17.71;96228.47;5048356;28;19924;-93
2023/11/04 11:09:41;;;;;;;;;;;;;;;30.63;17.32;96214.97;5049668;28;20399;-93
2023/11/04 11:12:26;;;;;;;;;;;;;;;30.14;18.00;96215.91;5050501;28;20343;-94
2023/11/04 11:14:53;;;;;;;;;;;;;;;29.80;17.76;96221.66;5044863;28;19940;-94
2023/11/04 11:17:28;;;;;;;;;;;;;;;29.65;19.45;96214.72;5053862;28;19924;-95
2023/11/04 11:19:54;;;;;;;;;;;;;;;30.37;17.64;96204.00;5046323;28;19931;-92
2023/11/04 11:22:23;;;;;;;;;;;;;;;30.89;17.78;96191.91;5049998;28;19921;-92
2023/11/04 11:24:52;;;;;;;;;;;;;;;30.13;17.32;96194.56;5052764;28;19924;-93
2023/11/04 11:27:18;;;;;;;;;;;;;;;30.18;17.46;96205.09;5052896;28;21718;-95
2023/11/04 11:29:45;;;;;;;;;;;;;;;30.54;18.77;96201.09;5048215;28;20036;-94
2023/11/04 11:32:11;;;;;;;;;;;;;;;29.50;17.64;96195.19;5053392;28;19951;-94
2023/11/04 11:35:07;;;;;;;;;;;;;;;27.77;20.33;96192.44;5047364;28;19928;-94
2023/11/04 11:37:33;;;;;;;;;;;;;;;28.37;19.03;96186.31;5040279;28;19932;-94
2023/11/04 11:40:11;;;;;;;;;;;;;;;28.45;18.91;96181.69;5051182;28;19925;-93
2023/11/04 11:42:37;;;;;;;;;;;;;;;29.00;18.62;96180.28;5042169;28;20015;-93
2023/11/04 11:45:05;;;;;;;;;;;;;;;29.10;18.91;96173.09;5048248;28;20007;-93
2023/11/04 11:47:31;;;;;;;;;;;;;;;29.47;17.86;96173.63;5046472;28;20020;-93
2023/11/04 11:49:58;;;;;;;;;;;;;;;29.70;18.11;96168.69;5045073;28;20023;-93
2023/11/04 11:52:24;;;;;;;;;;;;;;;29.82;18.56;96156.09;5046492;28;19970;-93
2023/11/04 11:54:50;;;;;;;;;;;;;;;30.25;18.23;96154.34;5050272;28;19929;-93
2023/11/04 11:57:16;;;;;;;;;;;;;;;30.58;17.08;96162.69;5049194;28;19920;-93
2023/11/04 11:59:42;;;;;;;;;;;;;;;30.90;17.57;96163.03;5051944;28;19925;-93
2023/11/04 12:02:10;;;;;;;;;;;;;;;31.39;17.33;96153.34;5054067;28;19943;-94
2023/11/04 12:04:36;;;;;;;;;;;;;;;31.65;16.14;96152.09;5052519;28;19925;-93
2023/11/04 12:07:02;;;;;;;;;;;;;;;29.52;17.80;96146.63;5047739;28;19917;-94
2023/11/04 12:09:29;;;;;;;;;;;;;;;28.91;18.32;96144.59;5040538;28;19925;-94
2023/11/04 12:11:55;;;;;;;;;;;;;;;29.12;18.07;96143.03;5051369;28;20301;-93
2023/11/04 12:14:23;;;;;;;;;;;;;;;27.86;18.75;96133.00;5049657;28;19921;-94
2023/11/04 12:16:49;;;;;;;;;;;;;;;26.11;20.96;96134.63;5049790;28;20044;-94
2023/11/04 12:19:15;;;;;;;;;;;;;;;26.18;20.72;96134.97;5038838;28;19936;-92
2023/11/04 12:21:41;;;;;;;;;;;;;;;27.58;20.11;96129.25;5048591;28;20023;-92
2023/11/04 12:24:08;;;;;;;;;;;;;;;28.36;20.07;96133.94;5048621;28;19929;-93
2023/11/04 12:26:34;;;;;;;;;;;;;;;29.54;19.62;96132.72;5045919;28;20004;-92
2023/11/04 12:29:01;;;;;;;;;;;;;;;30.13;18.70;96133.03;5045340;28;19987;-94
2023/11/04 12:31:27;;;;;;;;;;;;;;;29.31;17.68;96134.84;5044801;28;19935;-93
2023/11/04 12:33:53;;;;;;;;;;;;;;;27.82;18.64;96129.66;5048758;28;19936;-93
2023/11/04 12:36:19;;;;;;;;;;;;;;;28.36;20.13;96122.66;5045924;28;19921;-92
2023/11/04 12:38:46;;;;;;;;;;;;;;;29.45;18.69;96125.31;5051129;28;19932;-93
2023/11/04 12:41:17;;;;;;;;;;;;;;;30.46;16.54;96126.47;5043045;28;19929;-93
2023/11/04 12:43:43;;;;;;;;;;;;;;;29.57;17.54;96121.13;5051480;28;19967;-90
2023/11/04 12:46:10;;;;;;;;;;;;;;;28.44;18.19;96125.75;5043886;28;19939;-92